Aviation Digital Data Service (ADDS)

Output produced by METARs form (0243 UTC 24 July 2017)
found at http://www.aviationweather.gov/adds/metars/
 
KEAR 232327Z 2400/2424 09008KT P6SM SKC 
     FM241500 17011KT P6SM SKC
       
KEAT 232320Z 2400/2424 31012G20KT P6SM FEW200 
     FM240200 31024G32KT P6SM FEW150 
     FM240400 30019G25KT P6SM SKC 
     FM240700 30016KT P6SM SKC 
     FM242100 29006KT P6SM SKC
       
KEAU 232327Z 2400/2424 01008KT P6SM BKN035 
     FM240300 02003KT P6SM SKC 
     FM240900 06002KT 3SM BR SKC 
     FM241200 10005KT P6SM SKC 
     FM241900 14006KT P6SM SKC
       
KECG 240110Z 2401/2424 27013KT 5SM SHRA BR VCTS FEW030 BKN045CB 
     TEMPO 2401/2403 VRB18G35KT 1/2SM TSRA OVC015CB 
     FM240600 23009KT P6SM BKN100 
     FM241000 22010KT P6SM VCSH BKN100 
     FM241200 22011KT P6SM BKN100
       
KEED 232320Z 2400/2424 19012G18KT P6SM FEW150 
     FM240200 20015KT P6SM BKN150 
     FM241000 17009KT P6SM FEW120 BKN150
       
KEET 232339Z 2400/2424 22006KT P6SM VCTS SCT050CB 
     FM240100 00000KT P6SM SCT100 
     FM240900 00000KT 4SM BR SCT100 
     FM241300 26003KT P6SM SCT035 
     FM241800 24006KT P6SM VCTS SCT050CB
       
KEGE 232354Z 2400/2424 24007KT P6SM SCT100 SCT250 
     FM240200 07004KT P6SM FEW100 SCT200 
     FM240600 VRB03KT P6SM SCT200 
     FM241800 VRB03KT P6SM SCT100 BKN150 
     FM242100 24010KT P6SM VCSH BKN080 OVC110 AMD LTD TO CLD VIS AND WIND 2406/2414
       
KEKN 240201Z 2402/2424 25006KT P6SM BKN035 
     FM240500 24004KT 6SM +SHRA VCTS BKN010CB 
     FM240900 VRB03KT P6SM BKN003 
     FM241300 VRB03KT P6SM BKN015 
     FM241600 26005KT P6SM SCT035
       
KZZV 232329Z 2400/2424 23005KT P6SM SCT015 BKN040 
     FM240100 23005KT P6SM VCTS SCT015 BKN040CB 
     TEMPO 2401/2404 3SM -TSRA BKN040CB 
     FM240600 25004KT 2SM BR SCT015 
     FM240800 26004KT 1SM BR SCT008 
     FM241400 27006KT P6SM SCT050
       
KELP 232320Z 2400/2424 36011KT P6SM VCTS SCT050CB BKN120 BKN250 
     TEMPO 2400/2402 VRB27G37KT 5SM -TSRA BKN040CB OVC100 
     FM240900 09008KT P6SM SCT060 BKN100 BKN200 
     FM241400 22009KT P6SM FEW060 BKN100 BKN200
       
KELY 232320Z 2400/2424 VRB06KT P6SM VCSH SCT080 BKN110 
     FM240600 18007KT P6SM VCSH SCT050 SCT120 
     FM242000 18011KT P6SM VCTS BKN050CB
       
KEKO 232320Z 2400/2424 VRB06KT P6SM SCT110 
     FM240100 19012G22KT P6SM VCTS SCT100CB 
     TEMPO 2401/2403 VRB22G32KT TS BKN100CB 
     FM240500 VRB06KT P6SM SCT120 
     FM242300 VRB06KT P6SM VCTS SCT080CB BKN100
       
TAF AMD KEND 232325Z 2323/2424 05006KT 9999 FEW065 SCT200 QNH2987INS 
     BECMG 2402/2403 11009KT 9999 SCT150 QNH2992INS TX35/2323Z TN22/2412Z LAST NO AMDS AFT 2323 NEXT 2410
       
KENV 240050Z 2401/2424 23008KT P6SM VCSH SCT090 BKN150 
     FM240200 VRB05KT P6SM SCT110 BKN160
       
KENW 240225Z 2402/2424 06010KT P6SM BKN025 
     FM240800 36007KT P6SM BKN015 
     FM241700 02011KT P6SM BKN040 
     FM241900 03011KT P6SM SCT060
       
KERI 232330Z 2400/2424 27004KT P6SM SCT040 
     FM241200 26007KT P6SM BKN030 
     FM241600 29012KT P6SM BKN040 
     FM242300 32011KT P6SM SCT040
       
KEUG 232325Z 2400/2424 01015G25KT P6SM SKC 
     FM240500 02012KT P6SM SKC 
     FM240900 36007KT P6SM SKC 
     FM241500 01012KT P6SM SKC 
     FM242100 01012G20KT P6SM SKC
       
KEUL 232338Z 2400/2424 VRB05KT P6SM SKC 
     FM240800 31006KT P6SM SCT120 BKN200
       
KEVV 232322Z 2400/2424 VRB03KT P6SM SCT250 
     FM241000 VRB03KT 4SM BR SCT250 
     FM241300 VRB03KT P6SM FEW030
       
KEVW 232326Z 2400/2424 35011KT P6SM VCSH SCT080 BKN150 
     FM240100 19011KT P6SM VCSH SCT080 BKN150 
     FM240400 10010KT P6SM FEW080 BKN150 
     FM241700 22011KT P6SM SCT080 BKN150
       
KEWN 240226Z 2402/2424 VRB06KT P6SM BKN025 
     FM240400 21010KT P6SM SCT025 BKN200 
     FM240900 21009KT P6SM SCT025 BKN080 
     FM241500 21010G18KT P6SM -SHRA VCTS BKN050CB
       
KEWR 240237Z 2403/2506 13010KT 6SM -SHRA SCT025 
     TEMPO 2403/2406 BKN025 
     FM240600 06010KT 4SM SHRA BR OVC015 
     FM241000 04008KT 4SM SHRA OVC008 
     FM241500 04009G16KT 6SM -SHRA OVC015 
     FM241900 03009KT P6SM BKN025 
     FM242200 05008KT P6SM BKN050
       
KEYW 232324Z 2400/2424 11008KT P6SM FEW022 SCT250 
     FM241200 13007KT P6SM VCSH SCT025 SCT050 BKN250